createdAt,value
2019-05-19T00:00:59.606Z,914.44
2019-05-19T00:01:59.560Z,914.43
2019-05-19T00:02:59.674Z,914.44
2019-05-19T00:03:59.481Z,914.42
2019-05-19T00:04:59.433Z,914.39
2019-05-19T00:05:59.400Z,914.41
2019-05-19T00:06:59.384Z,914.42
2019-05-19T00:07:59.351Z,914.39
2019-05-19T00:08:59.331Z,914.45
2019-05-19T00:09:59.286Z,914.40
2019-05-19T00:10:59.230Z,914.43
2019-05-19T00:11:59.184Z,914.41
2019-05-19T00:12:59.166Z,914.45
2019-05-19T00:13:59.365Z,914.44
2019-05-19T00:14:59.100Z,914.45
2019-05-19T00:15:59.074Z,914.49
2019-05-19T00:16:59.113Z,914.52
2019-05-19T00:17:59.019Z,914.55
2019-05-19T00:18:58.961Z,914.50
2019-05-19T00:19:58.921Z,914.51
2019-05-19T00:20:58.878Z,914.54
2019-05-19T00:21:58.839Z,914.54
2019-05-19T00:22:58.829Z,914.55
2019-05-19T00:23:59.848Z,914.52
2019-05-19T00:24:58.766Z,914.53
2019-05-19T00:25:58.756Z,914.56
2019-05-19T00:26:58.669Z,914.56
2019-05-19T00:27:58.677Z,914.57
2019-05-19T00:28:58.610Z,914.60
2019-05-19T00:29:58.697Z,914.59
2019-05-19T00:30:58.787Z,914.60
2019-05-19T00:31:58.532Z,914.62
2019-05-19T00:32:58.453Z,914.62
2019-05-19T00:33:58.596Z,914.61
2019-05-19T00:34:58.523Z,914.64
2019-05-19T00:35:58.419Z,914.63
2019-05-19T00:37:58.443Z,914.61
2019-05-19T00:38:58.334Z,914.66
2019-05-19T00:39:58.461Z,914.64
2019-05-19T00:40:58.261Z,914.62
2019-05-19T00:41:58.431Z,914.64
2019-05-19T00:42:58.130Z,914.67
2019-05-19T00:43:58.094Z,914.69
2019-05-19T00:44:58.071Z,914.66
2019-05-19T00:45:58.028Z,914.69
2019-05-19T00:46:58.107Z,914.65
2019-05-19T00:47:57.951Z,914.64
2019-05-19T00:48:57.937Z,914.68
2019-05-19T00:49:57.868Z,914.68
2019-05-19T00:50:57.863Z,914.70
2019-05-19T00:51:57.838Z,914.73
2019-05-19T00:52:57.835Z,914.77
2019-05-19T00:53:57.754Z,914.75
2019-05-19T00:54:57.699Z,914.77
2019-05-19T00:55:57.687Z,914.78
2019-05-19T00:56:57.658Z,914.79
2019-05-19T00:57:57.610Z,914.79
2019-05-19T00:58:57.585Z,914.79
2019-05-19T00:59:57.601Z,914.76
2019-05-19T01:00:57.538Z,914.76
2019-05-19T01:01:57.493Z,914.77
2019-05-19T01:02:57.582Z,914.78
2019-05-19T01:03:57.398Z,914.79
2019-05-19T01:04:57.387Z,914.78
2019-05-19T01:05:57.326Z,914.77
2019-05-19T01:06:57.276Z,914.80
2019-05-19T01:07:57.315Z,914.79
2019-05-19T01:08:57.219Z,914.79
2019-05-19T01:09:57.197Z,914.81
2019-05-19T01:10:57.160Z,914.84
2019-05-19T01:11:57.147Z,914.85
2019-05-19T01:12:57.098Z,914.84
2019-05-19T01:13:57.147Z,914.89
2019-05-19T01:14:57.006Z,914.84
2019-05-19T01:15:57.000Z,914.86
2019-05-19T01:16:56.969Z,914.82
2019-05-19T01:17:56.919Z,914.83
2019-05-19T01:18:56.925Z,914.82
2019-05-19T01:19:56.830Z,914.82
2019-05-19T01:20:56.776Z,914.81
2019-05-19T01:21:56.763Z,914.81
2019-05-19T01:22:56.733Z,914.82
2019-05-19T01:23:56.690Z,914.85
2019-05-19T01:24:56.716Z,914.84
2019-05-19T01:25:56.646Z,914.85
2019-05-19T01:26:56.593Z,914.85
2019-05-19T01:27:56.578Z,914.87
2019-05-19T01:28:56.511Z,914.85
2019-05-19T01:29:56.477Z,914.83
2019-05-19T01:30:56.431Z,914.78
2019-05-19T01:31:56.428Z,914.79
2019-05-19T01:32:56.381Z,914.76
2019-05-19T01:33:56.353Z,914.77
2019-05-19T01:34:56.288Z,914.77
2019-05-19T01:35:56.281Z,914.77
2019-05-19T01:36:56.253Z,914.77
2019-05-19T01:37:56.234Z,914.76
2019-05-19T01:38:56.178Z,914.72
2019-05-19T01:39:56.272Z,914.71
2019-05-19T01:40:56.083Z,914.77
2019-05-19T01:41:56.049Z,914.72
2019-05-19T01:42:56.080Z,914.73
2019-05-19T01:43:56.025Z,914.71
2019-05-19T01:44:55.991Z,914.72
2019-05-19T01:45:56.257Z,914.70
2019-05-19T01:46:55.951Z,914.71
2019-05-19T01:47:55.843Z,914.71
2019-05-19T01:48:55.821Z,914.72
2019-05-19T01:50:15.094Z,914.74
2019-05-19T01:50:55.828Z,914.72
2019-05-19T01:51:55.692Z,914.76
2019-05-19T01:52:55.698Z,914.74
2019-05-19T01:53:55.624Z,914.77
2019-05-19T01:54:55.676Z,914.72
2019-05-19T01:55:55.610Z,914.77
2019-05-19T01:56:55.763Z,914.73
2019-05-19T01:57:55.492Z,914.72
2019-05-19T01:58:55.455Z,914.70
2019-05-19T01:59:55.430Z,914.72
2019-05-19T02:00:55.427Z,914.72
2019-05-19T02:01:55.355Z,914.72
2019-05-19T02:02:55.322Z,914.77
2019-05-19T02:03:55.310Z,914.75
2019-05-19T02:04:55.283Z,914.74
2019-05-19T02:05:55.246Z,914.78
2019-05-19T02:06:55.166Z,914.77
2019-05-19T02:07:55.240Z,914.76
2019-05-19T02:08:55.090Z,914.72
2019-05-19T02:09:55.092Z,914.73
2019-05-19T02:10:55.034Z,914.73
2019-05-19T02:11:54.992Z,914.72
2019-05-19T02:12:54.981Z,914.72
2019-05-19T02:13:55.168Z,914.75
2019-05-19T02:14:54.925Z,914.74
2019-05-19T02:15:54.903Z,914.75
2019-05-19T02:16:55.562Z,914.73
2019-05-19T02:17:54.822Z,914.76
2019-05-19T02:19:54.901Z,914.78
2019-05-19T02:20:54.822Z,914.75
2019-05-19T02:21:54.770Z,914.75
2019-05-19T02:22:55.426Z,914.78
2019-05-19T02:23:54.696Z,914.74
2019-05-19T02:24:54.777Z,914.74
2019-05-19T02:25:54.836Z,914.72
2019-05-19T02:26:54.700Z,914.74
2019-05-19T02:27:54.579Z,914.71
2019-05-19T02:28:54.460Z,914.71
2019-05-19T02:29:54.362Z,914.72
2019-05-19T02:30:54.349Z,914.73
2019-05-19T02:31:54.325Z,914.71
2019-05-19T02:32:54.267Z,914.74
2019-05-19T02:33:54.220Z,914.68
2019-05-19T02:34:54.224Z,914.63
2019-05-19T02:35:54.144Z,914.67
2019-05-19T02:36:54.221Z,914.69
2019-05-19T02:37:54.082Z,914.67
2019-05-19T02:38:54.077Z,914.71
2019-05-19T02:39:54.001Z,914.69
2019-05-19T02:40:53.974Z,914.69
2019-05-19T02:41:54.012Z,914.68
2019-05-19T02:42:53.908Z,914.66
2019-05-19T02:43:53.905Z,914.66
2019-05-19T02:44:53.887Z,914.66
2019-05-19T02:45:53.803Z,914.66
2019-05-19T02:46:53.840Z,914.64
2019-05-19T02:47:53.805Z,914.70
2019-05-19T02:48:53.746Z,914.69
2019-05-19T02:49:53.649Z,914.68
2019-05-19T02:50:53.635Z,914.67
2019-05-19T02:51:53.677Z,914.68
2019-05-19T02:52:53.587Z,914.62
2019-05-19T02:53:53.536Z,914.62
2019-05-19T02:54:53.506Z,914.60
2019-05-19T02:55:53.485Z,914.59
2019-05-19T02:56:53.433Z,914.59
2019-05-19T02:57:53.375Z,914.58
2019-05-19T02:58:53.342Z,914.55
2019-05-19T02:59:53.316Z,914.58
2019-05-19T03:00:53.285Z,914.60
2019-05-19T03:01:53.245Z,914.58
2019-05-19T03:02:53.377Z,914.57
2019-05-19T03:03:53.169Z,914.55
2019-05-19T03:04:53.141Z,914.56
2019-05-19T03:05:53.123Z,914.59
2019-05-19T03:06:53.060Z,914.59
2019-05-19T03:07:53.025Z,914.59
2019-05-19T03:08:53.224Z,914.57
2019-05-19T03:09:52.964Z,914.61
2019-05-19T03:10:52.919Z,914.59
2019-05-19T03:11:52.879Z,914.58
2019-05-19T03:12:52.835Z,914.57
2019-05-19T03:13:52.818Z,914.56
2019-05-19T03:14:52.762Z,914.53
2019-05-19T03:15:52.731Z,914.54
2019-05-19T03:16:52.701Z,914.54
2019-05-19T03:17:52.656Z,914.51
2019-05-19T03:18:52.635Z,914.51
2019-05-19T03:19:52.585Z,914.52
2019-05-19T03:21:08.134Z,914.54
2019-05-19T03:21:52.539Z,914.59
2019-05-19T03:22:52.477Z,914.58
2019-05-19T03:23:52.446Z,914.60
2019-05-19T03:24:52.419Z,914.55
2019-05-19T03:25:52.374Z,914.59
2019-05-19T03:26:52.344Z,914.52
2019-05-19T03:27:52.320Z,914.57
2019-05-19T03:28:52.261Z,914.53
2019-05-19T03:30:52.188Z,914.56
2019-05-19T03:31:52.204Z,914.56
2019-05-19T03:32:52.172Z,914.55
2019-05-19T03:33:52.131Z,914.53
2019-05-19T03:34:52.058Z,914.51
2019-05-19T03:35:52.021Z,914.49
2019-05-19T03:36:52.007Z,914.51
2019-05-19T03:37:51.960Z,914.49
2019-05-19T03:38:51.923Z,914.48
2019-05-19T03:39:51.895Z,914.48
2019-05-19T03:40:51.908Z,914.46
2019-05-19T03:41:51.818Z,914.43
2019-05-19T03:42:51.792Z,914.39
2019-05-19T03:43:51.748Z,914.39
2019-05-19T03:44:51.689Z,914.34
2019-05-19T03:45:51.758Z,914.38
2019-05-19T03:46:51.643Z,914.37
2019-05-19T03:47:51.606Z,914.33
2019-05-19T03:48:51.544Z,914.34
2019-05-19T03:49:51.536Z,914.38
2019-05-19T03:50:51.582Z,914.33
2019-05-19T03:51:51.437Z,914.36
2019-05-19T03:52:51.433Z,914.38
2019-05-19T03:53:51.390Z,914.37
2019-05-19T03:54:51.332Z,914.37
2019-05-19T03:55:51.303Z,914.37
2019-05-19T03:56:51.272Z,914.37
2019-05-19T03:57:51.237Z,914.36
2019-05-19T03:58:51.194Z,914.39
2019-05-19T03:59:51.184Z,914.43
2019-05-19T04:00:51.116Z,914.40
2019-05-19T04:01:51.083Z,914.36
2019-05-19T04:02:51.045Z,914.35
2019-05-19T04:03:51.010Z,914.36
2019-05-19T04:04:50.985Z,914.33
2019-05-19T04:05:50.968Z,914.29
2019-05-19T04:06:50.918Z,914.26
2019-05-19T04:07:50.881Z,914.23
2019-05-19T04:08:50.846Z,914.23
2019-05-19T04:09:50.828Z,914.23
2019-05-19T04:10:50.790Z,914.25
2019-05-19T04:12:50.715Z,914.22
2019-05-19T04:13:50.654Z,914.23
2019-05-19T04:14:50.618Z,914.24
2019-05-19T04:15:50.604Z,914.21
2019-05-19T04:16:50.869Z,914.17
2019-05-19T04:17:50.511Z,914.15
2019-05-19T04:18:50.505Z,914.16
2019-05-19T04:19:50.445Z,914.13
2019-05-19T04:20:50.572Z,914.12
2019-05-19T04:21:50.379Z,914.15
2019-05-19T04:22:50.337Z,914.16
2019-05-19T04:23:50.338Z,914.15
2019-05-19T04:24:50.263Z,914.15
2019-05-19T04:25:50.246Z,914.13
2019-05-19T04:26:50.216Z,914.18
2019-05-19T04:27:50.260Z,914.14
2019-05-19T04:28:50.117Z,914.14
2019-05-19T04:29:50.085Z,914.13
2019-05-19T04:30:50.045Z,914.11
2019-05-19T04:31:50.031Z,914.09
2019-05-19T04:32:49.992Z,914.11
2019-05-19T04:33:50.220Z,914.13
2019-05-19T04:34:49.907Z,914.13
2019-05-19T04:35:49.867Z,914.11
2019-05-19T04:36:49.829Z,914.11
2019-05-19T04:37:49.796Z,914.13
2019-05-19T04:38:49.781Z,914.12
2019-05-19T04:39:49.741Z,914.11
2019-05-19T04:40:49.688Z,914.11
2019-05-19T04:41:49.656Z,914.05
2019-05-19T04:42:49.633Z,914.09
2019-05-19T04:43:49.579Z,914.08
2019-05-19T04:44:49.543Z,914.09
2019-05-19T04:45:49.542Z,914.09
2019-05-19T04:46:49.498Z,914.06
2019-05-19T04:47:49.465Z,914.09
2019-05-19T04:48:49.445Z,914.11
2019-05-19T04:49:49.384Z,914.08
2019-05-19T04:50:49.362Z,914.07
2019-05-19T04:52:05.487Z,914.05
2019-05-19T04:52:49.284Z,914.07
2019-05-19T04:53:49.261Z,914.04
2019-05-19T04:54:49.208Z,914.03
2019-05-19T04:55:49.172Z,914.04
2019-05-19T04:56:49.134Z,914.07
2019-05-19T04:57:49.102Z,914.05
2019-05-19T04:58:49.066Z,914.01
2019-05-19T04:59:49.027Z,914.02
2019-05-19T05:00:48.979Z,914.04
2019-05-19T05:01:48.938Z,914.05
2019-05-19T05:02:48.899Z,914.04
2019-05-19T05:03:48.887Z,914.01
2019-05-19T05:04:48.854Z,914.04
2019-05-19T05:05:48.801Z,914.04
2019-05-19T05:06:48.756Z,914.06
2019-05-19T05:07:48.748Z,914.05
2019-05-19T05:08:48.708Z,914.05
2019-05-19T05:09:48.650Z,914.00
2019-05-19T05:10:48.647Z,914.01
2019-05-19T05:11:48.586Z,914.02
2019-05-19T05:12:48.544Z,913.99
2019-05-19T05:13:48.535Z,914.03
2019-05-19T05:14:48.491Z,913.99
2019-05-19T05:15:48.462Z,913.97
2019-05-19T05:16:48.430Z,913.98
2019-05-19T05:17:48.370Z,913.97
2019-05-19T05:18:48.355Z,913.95
2019-05-19T05:19:48.294Z,913.94
2019-05-19T05:20:48.264Z,913.93
2019-05-19T05:21:48.492Z,913.90
2019-05-19T05:22:48.214Z,913.85
2019-05-19T05:23:48.172Z,913.84
2019-05-19T05:24:48.138Z,913.85
2019-05-19T05:25:48.079Z,913.83
2019-05-19T05:26:48.070Z,913.80
2019-05-19T05:27:48.109Z,913.78
2019-05-19T05:28:47.995Z,913.78
2019-05-19T05:29:47.936Z,913.72
2019-05-19T05:30:47.907Z,913.75
2019-05-19T05:31:47.892Z,913.72
2019-05-19T05:32:47.862Z,913.69
2019-05-19T05:33:47.814Z,913.72
2019-05-19T05:34:47.795Z,913.74
2019-05-19T05:35:47.729Z,913.76
2019-05-19T05:36:47.717Z,913.77
2019-05-19T05:37:47.661Z,913.79
2019-05-19T05:38:47.639Z,913.74
2019-05-19T05:39:47.603Z,913.78
2019-05-19T05:40:47.568Z,913.76
2019-05-19T05:41:47.530Z,913.74
2019-05-19T05:42:47.505Z,913.74
2019-05-19T05:43:47.566Z,913.74
2019-05-19T05:44:47.424Z,913.73
2019-05-19T05:45:47.366Z,913.74
2019-05-19T05:46:47.371Z,913.76
2019-05-19T05:47:47.296Z,913.73
2019-05-19T05:48:47.279Z,913.72
2019-05-19T05:49:50.160Z,913.70
2019-05-19T05:50:47.211Z,913.73
2019-05-19T05:51:47.153Z,913.69
2019-05-19T05:52:47.148Z,913.71
2019-05-19T05:53:47.092Z,913.69
2019-05-19T05:54:47.084Z,913.66
2019-05-19T05:55:47.044Z,913.69
2019-05-19T05:56:46.983Z,913.69
2019-05-19T05:57:46.945Z,913.68
2019-05-19T05:58:46.929Z,913.68
2019-05-19T05:59:46.897Z,913.66
2019-05-19T06:00:46.902Z,913.68
2019-05-19T06:01:46.798Z,913.67
2019-05-19T06:02:46.771Z,913.65
2019-05-19T06:03:46.752Z,913.64
2019-05-19T06:04:46.694Z,913.64
2019-05-19T06:05:46.707Z,913.64
2019-05-19T06:06:46.644Z,913.62
2019-05-19T06:07:46.610Z,913.63
2019-05-19T06:08:46.573Z,913.60
2019-05-19T06:09:46.530Z,913.61
2019-05-19T06:10:46.511Z,913.60
2019-05-19T06:11:46.458Z,913.61
2019-05-19T06:12:46.433Z,913.62
2019-05-19T06:13:49.419Z,913.64
2019-05-19T06:14:46.346Z,913.65
2019-05-19T06:15:46.306Z,913.63
2019-05-19T06:16:46.270Z,913.61
2019-05-19T06:17:46.259Z,913.61
2019-05-19T06:18:46.200Z,913.60
2019-05-19T06:19:46.165Z,913.60
2019-05-19T06:20:46.138Z,913.56
2019-05-19T06:21:46.095Z,913.57
2019-05-19T06:22:56.000Z,913.58
2019-05-19T06:23:46.040Z,913.61
2019-05-19T06:24:45.981Z,913.58
2019-05-19T06:25:46.218Z,913.59
2019-05-19T06:26:45.936Z,913.60
2019-05-19T06:27:45.928Z,913.62
2019-05-19T06:28:45.847Z,913.61
2019-05-19T06:29:45.806Z,913.59
2019-05-19T06:30:45.784Z,913.58
2019-05-19T06:31:45.736Z,913.57
2019-05-19T06:35:24.015Z,913.62
2019-05-19T06:35:31.565Z,913.64
2019-05-19T06:36:31.538Z,913.65
2019-05-19T06:37:31.496Z,913.64
2019-05-19T06:38:31.504Z,913.66
2019-05-19T06:39:31.427Z,913.63
2019-05-19T06:40:31.396Z,913.65
2019-05-19T06:41:31.352Z,913.62
2019-05-19T06:42:31.582Z,913.59
2019-05-19T06:43:31.297Z,913.58
2019-05-19T06:44:31.250Z,913.59
2019-05-19T06:45:31.220Z,913.58
2019-05-19T06:46:31.181Z,913.52
2019-05-19T06:47:31.155Z,913.57
2019-05-19T06:48:31.125Z,913.60
2019-05-19T06:49:31.090Z,913.59
2019-05-19T06:50:31.045Z,913.58
2019-05-19T06:51:31.001Z,913.59
2019-05-19T06:52:30.997Z,913.55
2019-05-19T06:53:30.945Z,913.58
2019-05-19T06:54:30.892Z,913.56
2019-05-19T06:55:30.890Z,913.57
2019-05-19T06:56:30.829Z,913.56
2019-05-19T06:57:30.783Z,913.54
2019-05-19T06:58:30.776Z,913.52
2019-05-19T06:59:30.736Z,913.53
2019-05-19T07:00:30.699Z,913.53
2019-05-19T07:01:30.662Z,913.54
2019-05-19T07:02:30.632Z,913.52
2019-05-19T07:03:30.595Z,913.51
2019-05-19T07:04:30.565Z,913.52
2019-05-19T07:05:30.502Z,913.51
2019-05-19T07:06:30.480Z,913.51
2019-05-19T07:07:30.444Z,913.52
2019-05-19T07:08:30.415Z,913.52
2019-05-19T07:09:30.387Z,913.56
2019-05-19T07:10:30.597Z,913.55
2019-05-19T07:11:30.498Z,913.56
2019-05-19T07:12:30.277Z,913.57
2019-05-19T07:13:30.220Z,913.54
2019-05-19T07:14:30.178Z,913.55
2019-05-19T07:15:30.166Z,913.61
2019-05-19T07:16:30.111Z,913.57
2019-05-19T07:17:30.072Z,913.58
2019-05-19T07:18:30.057Z,913.60
2019-05-19T07:19:30.037Z,913.63
2019-05-19T07:20:29.972Z,913.62
2019-05-19T07:21:29.947Z,913.59
2019-05-19T07:22:29.916Z,913.61
2019-05-19T07:23:29.863Z,913.56
2019-05-19T07:24:29.827Z,913.53
2019-05-19T07:25:29.815Z,913.54
2019-05-19T07:26:29.771Z,913.48
2019-05-19T07:27:29.746Z,913.52
2019-05-19T07:28:29.684Z,913.50
2019-05-19T07:29:29.650Z,913.52
2019-05-19T07:30:29.618Z,913.56
2019-05-19T07:31:29.578Z,913.60
2019-05-19T07:32:29.812Z,913.59
2019-05-19T07:33:29.525Z,913.61
2019-05-19T07:34:29.473Z,913.61
2019-05-19T07:35:29.464Z,913.61
2019-05-19T07:36:29.411Z,913.60
2019-05-19T07:37:29.392Z,913.59
2019-05-19T07:38:29.468Z,913.62
2019-05-19T07:39:29.315Z,913.59
2019-05-19T07:40:29.285Z,913.59
2019-05-19T07:41:29.249Z,913.60
2019-05-19T07:42:29.211Z,913.61
2019-05-19T07:43:29.179Z,913.59
2019-05-19T07:44:29.214Z,913.64
2019-05-19T07:45:29.078Z,913.63
2019-05-19T07:46:29.044Z,913.63
2019-05-19T07:47:29.019Z,913.65
2019-05-19T07:48:28.975Z,913.64
2019-05-19T07:49:28.946Z,913.68
2019-05-19T07:50:28.987Z,913.69
2019-05-19T07:51:28.866Z,913.66
2019-05-19T07:52:28.907Z,913.67
2019-05-19T07:53:40.840Z,913.70
2019-05-19T07:54:28.761Z,913.66
2019-05-19T07:55:28.747Z,913.68
2019-05-19T07:56:28.687Z,913.70
2019-05-19T07:57:28.682Z,913.70
2019-05-19T07:58:28.623Z,913.72
2019-05-19T07:59:28.585Z,913.72
2019-05-19T08:00:28.560Z,913.72
2019-05-19T08:01:28.536Z,913.72
2019-05-19T08:02:28.500Z,913.76
2019-05-19T08:03:28.462Z,913.71
2019-05-19T08:04:28.423Z,913.73
2019-05-19T08:05:28.398Z,913.71
2019-05-19T08:06:28.533Z,913.71
2019-05-19T08:07:28.320Z,913.71
2019-05-19T08:08:28.263Z,913.72
2019-05-19T08:09:28.251Z,913.77
2019-05-19T08:10:28.321Z,913.75
2019-05-19T08:11:28.182Z,913.75
2019-05-19T08:12:28.240Z,913.77
2019-05-19T08:13:28.105Z,913.79
2019-05-19T08:14:28.069Z,913.75
2019-05-19T08:15:28.015Z,913.77
2019-05-19T08:16:28.008Z,913.82
2019-05-19T08:17:27.969Z,913.83
2019-05-19T08:18:27.908Z,913.84
2019-05-19T08:19:27.870Z,913.86
2019-05-19T08:20:27.853Z,913.87
2019-05-19T08:21:27.860Z,913.88
2019-05-19T08:22:27.771Z,913.85
2019-05-19T08:23:27.729Z,913.88
2019-05-19T08:24:27.700Z,913.88
2019-05-19T08:25:27.657Z,913.88
2019-05-19T08:26:27.652Z,913.89
2019-05-19T08:27:27.607Z,913.88
2019-05-19T08:28:27.699Z,913.90
2019-05-19T08:29:27.536Z,913.90
2019-05-19T08:30:27.501Z,913.90
2019-05-19T08:31:27.474Z,913.91
2019-05-19T08:32:27.409Z,913.91
2019-05-19T08:33:27.409Z,913.93
2019-05-19T08:34:27.493Z,913.90
2019-05-19T08:35:27.299Z,913.92
2019-05-19T08:36:27.265Z,913.93
2019-05-19T08:37:27.248Z,913.91
2019-05-19T08:38:27.218Z,913.94
2019-05-19T08:39:27.157Z,913.94
2019-05-19T08:40:27.433Z,913.94
2019-05-19T08:41:27.115Z,913.95
2019-05-19T08:42:27.074Z,913.93
2019-05-19T08:43:27.021Z,913.97
2019-05-19T08:44:27.006Z,914.01
2019-05-19T08:45:27.096Z,914.00
2019-05-19T08:46:26.948Z,913.99
2019-05-19T08:47:26.884Z,914.04
2019-05-19T08:48:26.859Z,914.06
2019-05-19T08:49:26.822Z,914.06
2019-05-19T08:50:26.764Z,914.08
2019-05-19T08:51:26.739Z,914.09
2019-05-19T08:52:26.697Z,914.08
2019-05-19T08:53:26.663Z,914.10
2019-05-19T08:54:26.624Z,914.13
2019-05-19T08:55:26.615Z,914.13
2019-05-19T08:56:26.558Z,914.15
2019-05-19T08:57:26.782Z,914.12
2019-05-19T08:58:26.480Z,914.18
2019-05-19T08:59:26.468Z,914.15
2019-05-19T09:00:26.408Z,914.17
2019-05-19T09:01:26.372Z,914.19
2019-05-19T09:02:26.360Z,914.24
2019-05-19T09:03:26.398Z,914.26
2019-05-19T09:04:26.264Z,914.25
2019-05-19T09:05:26.234Z,914.25
2019-05-19T09:06:26.196Z,914.26
2019-05-19T09:07:26.172Z,914.24
2019-05-19T09:08:26.141Z,914.28
2019-05-19T09:09:26.090Z,914.29
2019-05-19T09:10:26.123Z,914.30
2019-05-19T09:11:26.042Z,914.31
2019-05-19T09:12:25.993Z,914.33
2019-05-19T09:13:25.955Z,914.30
2019-05-19T09:14:25.908Z,914.32
2019-05-19T09:15:25.897Z,914.32
2019-05-19T09:16:25.836Z,914.31
2019-05-19T09:17:25.833Z,914.32
2019-05-19T09:18:25.770Z,914.33
2019-05-19T09:19:25.783Z,914.33
2019-05-19T09:20:25.693Z,914.28
2019-05-19T09:21:25.657Z,914.31
2019-05-19T09:22:25.661Z,914.32
2019-05-19T09:23:25.676Z,914.31
2019-05-19T09:24:30.423Z,914.30
2019-05-19T09:25:25.511Z,914.31
2019-05-19T09:26:25.499Z,914.32
2019-05-19T09:27:25.444Z,914.34
2019-05-19T09:28:25.437Z,914.35
2019-05-19T09:29:25.381Z,914.39
2019-05-19T09:30:25.483Z,914.39
2019-05-19T09:31:25.298Z,914.41
2019-05-19T09:32:25.335Z,914.40
2019-05-19T09:33:25.246Z,914.47
2019-05-19T09:34:25.195Z,914.46
2019-05-19T09:35:25.191Z,914.50
2019-05-19T09:36:25.241Z,914.46
2019-05-19T09:37:25.083Z,914.51
2019-05-19T09:38:25.096Z,914.48
2019-05-19T09:39:25.023Z,914.48
2019-05-19T09:40:26.769Z,914.51
2019-05-19T09:41:24.959Z,914.54
2019-05-19T09:42:24.939Z,914.58
2019-05-19T09:43:24.876Z,914.60
2019-05-19T09:44:24.859Z,914.62
2019-05-19T09:45:24.822Z,914.64
2019-05-19T09:46:24.790Z,914.63
2019-05-19T09:47:24.735Z,914.61
2019-05-19T09:48:24.695Z,914.62
2019-05-19T09:49:24.686Z,914.62
2019-05-19T09:50:24.647Z,914.62
2019-05-19T09:51:24.607Z,914.63
2019-05-19T09:52:24.577Z,914.67
2019-05-19T09:53:24.521Z,914.69
2019-05-19T09:54:24.502Z,914.69
2019-05-19T09:55:24.449Z,914.66
2019-05-19T09:56:24.438Z,914.66
2019-05-19T09:57:24.382Z,914.67
2019-05-19T09:58:24.359Z,914.68
2019-05-19T09:59:24.300Z,914.65
2019-05-19T10:00:24.282Z,914.61
2019-05-19T10:01:24.258Z,914.66
2019-05-19T10:02:24.224Z,914.65
2019-05-19T10:03:24.183Z,914.63
2019-05-19T10:04:24.133Z,914.68
2019-05-19T10:05:24.110Z,914.70
2019-05-19T10:06:24.071Z,914.74
2019-05-19T10:07:24.028Z,914.74
2019-05-19T10:08:23.981Z,914.73
2019-05-19T10:09:23.947Z,914.73
2019-05-19T10:10:23.950Z,914.78
2019-05-19T10:11:23.908Z,914.77
2019-05-19T10:12:23.874Z,914.76
2019-05-19T10:13:23.804Z,914.80
2019-05-19T10:14:23.801Z,914.75
2019-05-19T10:15:23.733Z,914.78
2019-05-19T10:16:23.706Z,914.79
2019-05-19T10:17:23.688Z,914.86
2019-05-19T10:18:23.638Z,914.83
2019-05-19T10:19:23.621Z,914.81
2019-05-19T10:20:23.586Z,914.80
2019-05-19T10:21:23.521Z,914.81
2019-05-19T10:22:23.490Z,914.85
2019-05-19T10:23:23.472Z,914.83
2019-05-19T10:24:23.616Z,914.87
2019-05-19T10:25:23.633Z,914.88
2019-05-19T10:26:23.364Z,914.90
2019-05-19T10:27:23.333Z,914.92
2019-05-19T10:28:23.297Z,914.93
2019-05-19T10:29:23.260Z,914.94
2019-05-19T10:30:23.228Z,914.93
2019-05-19T10:31:23.191Z,914.93
2019-05-19T10:32:23.147Z,914.95
2019-05-19T10:33:23.147Z,915.00
2019-05-19T10:34:23.172Z,914.99
2019-05-19T10:35:23.062Z,915.02
2019-05-19T10:36:23.115Z,915.01
2019-05-19T10:37:22.971Z,915.06
2019-05-19T10:38:22.999Z,915.01
2019-05-19T10:39:22.911Z,915.02
2019-05-19T10:40:22.881Z,915.06
2019-05-19T10:41:22.838Z,915.08
2019-05-19T10:42:22.803Z,915.11
2019-05-19T10:43:22.913Z,915.16
2019-05-19T10:44:22.824Z,915.18
2019-05-19T10:45:22.886Z,915.16
2019-05-19T10:47:22.618Z,915.21
2019-05-19T10:48:22.587Z,915.22
2019-05-19T10:49:22.580Z,915.22
2019-05-19T10:50:22.501Z,915.17
2019-05-19T10:51:22.490Z,915.18
2019-05-19T10:52:22.458Z,915.18
2019-05-19T10:53:22.397Z,915.21
2019-05-19T10:54:22.372Z,915.27
2019-05-19T10:55:35.553Z,915.29
2019-05-19T10:56:22.298Z,915.32
2019-05-19T10:57:22.562Z,915.38
2019-05-19T10:58:22.229Z,915.43
2019-05-19T10:59:22.208Z,915.43
2019-05-19T11:00:22.282Z,915.44
2019-05-19T11:01:22.145Z,915.51
2019-05-19T11:02:22.089Z,915.51
2019-05-19T11:03:22.159Z,915.50
2019-05-19T11:04:22.045Z,915.44
2019-05-19T11:05:21.988Z,915.49
2019-05-19T11:06:21.983Z,915.55
2019-05-19T11:07:21.956Z,915.52
2019-05-19T11:08:21.917Z,915.55
2019-05-19T11:09:22.172Z,915.56
2019-05-19T11:10:21.871Z,915.64
2019-05-19T11:11:21.980Z,915.59
2019-05-19T11:12:21.783Z,915.52
2019-05-19T11:13:21.738Z,915.50
2019-05-19T11:14:21.717Z,915.49
2019-05-19T11:15:21.675Z,915.57
2019-05-19T11:16:21.641Z,915.55
2019-05-19T11:17:21.587Z,915.60
2019-05-19T11:18:21.558Z,915.50
2019-05-19T11:19:21.794Z,915.53
2019-05-19T11:20:21.506Z,915.63
2019-05-19T11:21:21.479Z,915.65
2019-05-19T11:22:21.459Z,915.62
2019-05-19T11:23:21.436Z,915.64
2019-05-19T11:24:21.400Z,916.00
2019-05-19T11:25:33.540Z,916.10
2019-05-19T11:26:21.294Z,915.93
2019-05-19T11:27:21.276Z,916.06
2019-05-19T11:28:21.251Z,916.30
2019-05-19T11:29:21.198Z,915.82
2019-05-19T11:30:21.161Z,916.09
2019-05-19T11:32:21.132Z,916.04
2019-05-19T11:33:21.112Z,916.12
2019-05-19T11:34:21.066Z,916.46
2019-05-19T11:35:21.032Z,916.43
2019-05-19T11:36:20.973Z,916.47
2019-05-19T11:38:20.920Z,916.47
2019-05-19T11:39:20.885Z,916.44
2019-05-19T11:40:20.870Z,916.19
2019-05-19T11:41:20.844Z,916.39
2019-05-19T11:42:20.808Z,916.39
2019-05-19T11:43:20.785Z,916.53
2019-05-19T11:44:20.745Z,916.53
2019-05-19T11:45:20.707Z,916.58
2019-05-19T11:46:20.757Z,916.60
2019-05-19T11:47:20.646Z,916.60
2019-05-19T11:48:20.713Z,916.55
2019-05-19T11:49:20.607Z,916.53
2019-05-19T11:50:20.828Z,916.58
2019-05-19T11:51:20.528Z,916.63
2019-05-19T11:52:20.674Z,916.63
2019-05-19T11:53:20.466Z,916.62
2019-05-19T11:54:20.465Z,916.59
2019-05-19T11:55:20.430Z,916.63
2019-05-19T11:56:20.405Z,916.64
2019-05-19T11:57:20.409Z,916.66
2019-05-19T11:58:20.341Z,916.63
2019-05-19T11:59:20.368Z,916.61
2019-05-19T12:00:20.452Z,916.55
2019-05-19T12:01:20.294Z,916.55
2019-05-19T12:02:20.244Z,916.57
2019-05-19T12:03:20.197Z,916.60
2019-05-19T12:04:20.301Z,916.63
2019-05-19T12:05:20.170Z,916.58
2019-05-19T12:06:20.151Z,916.63
2019-05-19T12:07:20.119Z,916.55
2019-05-19T12:08:20.117Z,916.45
2019-05-19T12:09:20.054Z,916.29
2019-05-19T12:10:20.044Z,916.21
2019-05-19T12:11:20.006Z,916.17
2019-05-19T12:12:19.993Z,916.17
2019-05-19T12:13:19.977Z,916.18
2019-05-19T12:14:19.920Z,916.18
2019-05-19T12:15:19.947Z,916.16
2019-05-19T12:16:19.915Z,916.17
2019-05-19T12:17:19.842Z,916.17
2019-05-19T12:18:20.160Z,916.18
2019-05-19T12:19:19.847Z,916.20
2019-05-19T12:20:19.807Z,916.16
2019-05-19T12:21:19.766Z,916.17
2019-05-19T12:22:19.737Z,916.19
2019-05-19T12:23:19.735Z,916.21
2019-05-19T12:25:19.648Z,916.23
2019-05-19T12:26:23.376Z,916.22
2019-05-19T12:27:19.610Z,916.23
2019-05-19T12:28:19.591Z,916.23
2019-05-19T12:29:19.571Z,916.22
2019-05-19T12:30:19.547Z,916.21
2019-05-19T12:31:19.498Z,916.22
2019-05-19T12:32:19.511Z,916.15
2019-05-19T12:33:19.536Z,916.20
2019-05-19T12:34:19.690Z,916.22
2019-05-19T12:35:19.426Z,916.21
2019-05-19T12:36:19.426Z,916.21
2019-05-19T12:37:19.373Z,916.11
2019-05-19T12:38:19.335Z,916.12